Time;durP1;ratioP1;P1;durP2;ratioP2;P2;SDS_P1;SDS_P2;PMS_P1;PMS_P2;Temp;Humidity;BMP_temperature;BMP_pressure;BME280_temperature;BME280_humidity;BME280_pressure;Samples;Min_cycle;Max_cycle;Signal;HPM_P1;HPM_P2
2023/10/30 00:01:58;;;;;;;1.67;0.60;;;11.70;99.90;;;;;;4223673;28;20321;-78
2023/10/30 00:04:00;;;;;;;1.73;0.50;;;11.70;99.90;;;;;;4222649;28;20278;-79
2023/10/30 00:06:02;;;;;;;1.50;0.60;;;11.60;99.90;;;;;;4224356;28;20683;-78
2023/10/30 00:08:06;;;;;;;1.37;0.40;;;11.60;99.90;;;;;;4223858;28;20216;-79
2023/10/30 00:10:10;;;;;;;1.23;0.50;;;11.60;99.90;;;;;;4225998;28;20206;-78
2023/10/30 00:12:11;;;;;;;0.50;0.40;;;11.60;99.90;;;;;;4223716;28;20260;-77
2023/10/30 00:14:13;;;;;;;0.50;0.50;;;11.60;99.90;;;;;;4226529;28;20289;-79
2023/10/30 00:16:13;;;;;;;2.53;0.50;;;11.50;99.90;;;;;;4227416;28;20214;-79
2023/10/30 00:18:15;;;;;;;0.50;0.40;;;11.50;99.90;;;;;;4232462;28;20713;-79
2023/10/30 00:20:17;;;;;;;0.80;0.50;;;11.60;99.90;;;;;;4229184;27;20544;-79
2023/10/30 00:22:19;;;;;;;1.20;0.50;;;11.60;99.90;;;;;;4228469;28;20211;-79
2023/10/30 00:24:23;;;;;;;1.90;0.63;;;11.60;99.90;;;;;;4221960;28;20225;-78
2023/10/30 00:26:27;;;;;;;3.03;0.50;;;11.60;99.90;;;;;;4224382;28;20219;-78
2023/10/30 00:28:30;;;;;;;1.83;0.67;;;11.60;99.90;;;;;;4224203;28;20204;-78
2023/10/30 00:30:32;;;;;;;2.97;0.60;;;11.60;99.90;;;;;;4227398;28;20215;-78
2023/10/30 00:32:34;;;;;;;1.00;0.50;;;11.60;99.90;;;;;;4228837;28;20194;-78
2023/10/30 00:34:36;;;;;;;1.63;0.60;;;11.60;99.90;;;;;;4225370;28;20205;-78
2023/10/30 00:36:38;;;;;;;0.50;0.40;;;11.60;99.90;;;;;;4225361;28;20207;-79
2023/10/30 00:38:40;;;;;;;0.80;0.40;;;11.70;99.90;;;;;;4233634;28;20213;-78
2023/10/30 00:40:42;;;;;;;1.87;0.57;;;11.70;99.90;;;;;;4225631;27;20226;-79
2023/10/30 00:42:45;;;;;;;2.87;0.60;;;11.70;99.90;;;;;;4232463;28;20273;-78
2023/10/30 00:44:47;;;;;;;1.40;0.53;;;11.70;99.90;;;;;;4230237;28;20204;-78
2023/10/30 00:46:51;;;;;;;1.43;0.60;;;11.60;99.90;;;;;;4228039;28;20266;-78
2023/10/30 00:48:53;;;;;;;2.53;0.70;;;11.60;99.90;;;;;;4224635;27;20197;-78
2023/10/30 00:50:56;;;;;;;2.30;0.50;;;11.50;99.90;;;;;;4229492;28;20209;-78
2023/10/30 00:52:58;;;;;;;0.97;0.40;;;11.50;99.90;;;;;;4227527;28;20228;-78
2023/10/30 00:55:00;;;;;;;1.60;0.67;;;11.50;99.90;;;;;;4226627;27;20277;-78
2023/10/30 00:57:02;;;;;;;1.60;0.50;;;11.40;99.90;;;;;;4226977;28;20307;-78
2023/10/30 00:59:06;;;;;;;2.00;0.80;;;11.40;99.90;;;;;;4234247;27;20220;-78
2023/10/30 01:01:09;;;;;;;2.50;0.60;;;11.40;99.90;;;;;;4225786;28;20202;-78
2023/10/30 01:03:11;;;;;;;1.20;0.60;;;11.40;99.90;;;;;;4228727;27;20699;-78
2023/10/30 01:05:13;;;;;;;0.73;0.50;;;11.40;99.90;;;;;;4226570;28;20262;-77
2023/10/30 01:07:15;;;;;;;2.07;0.60;;;11.40;99.90;;;;;;4231125;27;20205;-77
2023/10/30 01:09:16;;;;;;;0.90;0.67;;;11.30;99.90;;;;;;4230972;28;20209;-76
2023/10/30 01:11:18;;;;;;;2.67;0.67;;;11.40;99.90;;;;;;4229473;27;20201;-77
2023/10/30 01:13:20;;;;;;;0.87;0.50;;;11.40;99.90;;;;;;4224317;27;20232;-77
2023/10/30 01:15:23;;;;;;;0.50;0.50;;;11.40;99.90;;;;;;4225748;28;20261;-77
2023/10/30 01:17:25;;;;;;;1.77;0.57;;;11.30;99.90;;;;;;4222535;27;20217;-77
2023/10/30 01:19:27;;;;;;;3.93;0.80;;;11.30;99.90;;;;;;4223996;27;20225;-77
2023/10/30 01:21:29;;;;;;;1.53;0.83;;;11.20;99.90;;;;;;4231393;27;20205;-77
2023/10/30 01:23:31;;;;;;;1.47;0.60;;;11.20;99.90;;;;;;4226712;27;20354;-77
2023/10/30 01:25:33;;;;;;;5.03;0.77;;;11.20;99.90;;;;;;4222609;28;20279;-77
2023/10/30 01:27:35;;;;;;;1.77;0.40;;;11.20;99.90;;;;;;4227732;27;20197;-77
2023/10/30 01:29:37;;;;;;;1.00;0.70;;;11.20;99.90;;;;;;4226273;28;20208;-77
2023/10/30 01:31:40;;;;;;;1.83;0.30;;;11.20;99.90;;;;;;4226803;28;20250;-77
2023/10/30 01:33:42;;;;;;;2.73;0.70;;;11.20;99.90;;;;;;4223666;27;20220;-77
2023/10/30 01:35:43;;;;;;;3.03;0.60;;;11.20;99.90;;;;;;4227092;28;20208;-77
2023/10/30 01:37:45;;;;;;;2.27;0.50;;;11.20;99.90;;;;;;4221319;28;20204;-77
2023/10/30 01:39:47;;;;;;;3.93;0.70;;;11.20;99.90;;;;;;4221579;28;20211;-77
2023/10/30 01:41:49;;;;;;;3.47;0.60;;;11.20;99.90;;;;;;4228608;27;20369;-76
2023/10/30 01:43:51;;;;;;;2.43;0.60;;;11.20;99.90;;;;;;4226769;27;20232;-77
2023/10/30 01:45:53;;;;;;;1.70;0.80;;;11.20;99.90;;;;;;4228566;27;20199;-76
2023/10/30 01:47:56;;;;;;;2.27;0.60;;;11.10;99.90;;;;;;4226896;28;20804;-76
2023/10/30 01:50:00;;;;;;;2.33;0.50;;;11.20;99.90;;;;;;4223627;28;20201;-76
2023/10/30 01:52:02;;;;;;;2.63;0.60;;;11.10;99.90;;;;;;4223417;27;20720;-76
2023/10/30 01:54:05;;;;;;;1.57;0.50;;;11.00;99.90;;;;;;4226819;28;20270;-76
2023/10/30 01:56:07;;;;;;;1.57;0.70;;;11.00;99.90;;;;;;4225122;28;20653;-76
2023/10/30 01:58:10;;;;;;;2.60;1.30;;;11.00;99.90;;;;;;4229790;28;20754;-76
2023/10/30 02:00:13;;;;;;;3.97;1.57;;;11.00;99.90;;;;;;4225689;27;20204;-76
2023/10/30 02:02:15;;;;;;;1.10;0.60;;;10.90;99.90;;;;;;4228825;28;20668;-76
2023/10/30 02:04:20;;;;;;;1.73;0.63;;;10.90;99.90;;;;;;4226759;27;20252;-76
2023/10/30 02:06:22;;;;;;;0.90;0.50;;;11.00;99.90;;;;;;4225344;28;20547;-76
2023/10/30 02:08:26;;;;;;;2.33;1.43;;;11.00;99.90;;;;;;4228635;28;20216;-76
2023/10/30 02:10:29;;;;;;;4.17;0.73;;;10.90;99.90;;;;;;4221056;27;20209;-76
2023/10/30 02:12:30;;;;;;;3.93;0.73;;;10.90;99.90;;;;;;4225898;28;20211;-77
2023/10/30 02:14:32;;;;;;;3.33;0.87;;;11.00;99.90;;;;;;4229921;27;20204;-76
2023/10/30 02:16:34;;;;;;;2.60;0.53;;;10.90;99.90;;;;;;4226337;28;20664;-76
2023/10/30 02:18:36;;;;;;;4.60;0.53;;;11.00;99.90;;;;;;4224988;28;20282;-76
2023/10/30 02:20:40;;;;;;;1.13;0.57;;;11.00;99.90;;;;;;4224238;27;20209;-76
2023/10/30 02:22:42;;;;;;;1.90;0.70;;;11.00;99.90;;;;;;4224714;27;20211;-75
2023/10/30 02:24:44;;;;;;;1.63;0.70;;;11.00;99.90;;;;;;4228395;27;20215;-76
2023/10/30 02:26:47;;;;;;;0.57;0.57;;;11.00;99.90;;;;;;4228077;27;20201;-76
2023/10/30 02:28:49;;;;;;;2.13;0.50;;;11.00;99.90;;;;;;4226180;28;20340;-76
2023/10/30 02:30:51;;;;;;;1.60;0.60;;;11.10;99.90;;;;;;4228885;28;20262;-76
2023/10/30 02:32:53;;;;;;;4.23;0.63;;;11.10;99.90;;;;;;4224297;28;20216;-76
2023/10/30 02:34:55;;;;;;;4.00;0.80;;;11.10;99.90;;;;;;4221892;28;20196;-76
2023/10/30 02:36:58;;;;;;;2.23;0.60;;;11.10;99.90;;;;;;4223167;28;20340;-76
2023/10/30 02:39:00;;;;;;;1.90;0.67;;;11.10;99.90;;;;;;4226955;27;20230;-76
2023/10/30 02:41:01;;;;;;;3.13;0.70;;;11.10;99.90;;;;;;4225079;28;20207;-76
2023/10/30 02:43:04;;;;;;;4.00;0.70;;;11.20;99.90;;;;;;4223147;27;20234;-76
2023/10/30 02:45:07;;;;;;;2.53;0.70;;;11.20;99.90;;;;;;4223461;28;20204;-76
2023/10/30 02:47:09;;;;;;;0.80;0.60;;;11.20;99.90;;;;;;4223525;28;20679;-76
2023/10/30 02:49:11;;;;;;;2.93;0.70;;;11.20;99.90;;;;;;4231521;27;20195;-76
2023/10/30 02:51:13;;;;;;;6.00;0.70;;;11.20;99.90;;;;;;4227683;27;20204;-76
2023/10/30 02:53:15;;;;;;;1.27;0.60;;;11.30;99.90;;;;;;4225515;28;20224;-76
2023/10/30 02:55:17;;;;;;;1.43;0.60;;;11.20;99.90;;;;;;4229218;28;20280;-76
2023/10/30 02:57:19;;;;;;;4.00;0.90;;;11.20;99.90;;;;;;4225209;27;20266;-76
2023/10/30 02:59:22;;;;;;;1.87;0.60;;;11.30;99.90;;;;;;4227160;28;20223;-76
2023/10/30 03:01:24;;;;;;;3.10;0.60;;;11.20;99.90;;;;;;4223863;28;20255;-76
2023/10/30 03:03:26;;;;;;;2.37;0.60;;;11.30;99.90;;;;;;4228588;28;20286;-76
2023/10/30 03:05:28;;;;;;;1.43;0.60;;;11.30;99.90;;;;;;4227254;27;20204;-76
2023/10/30 03:07:30;;;;;;;3.17;0.73;;;11.30;99.90;;;;;;4225111;28;20215;-75
2023/10/30 03:09:34;;;;;;;0.70;0.43;;;11.30;99.90;;;;;;4220723;28;20212;-76
2023/10/30 03:11:34;;;;;;;1.83;0.60;;;11.40;99.90;;;;;;4222799;28;20228;-76
2023/10/30 03:13:36;;;;;;;4.73;0.97;;;11.40;99.90;;;;;;4223864;28;20223;-76
2023/10/30 03:15:40;;;;;;;3.50;1.10;;;11.30;99.90;;;;;;4229222;27;20201;-76
2023/10/30 03:17:42;;;;;;;1.40;0.43;;;11.30;99.90;;;;;;4228377;28;20667;-76
2023/10/30 03:19:44;;;;;;;3.53;0.90;;;11.40;99.90;;;;;;4227754;27;20621;-76
2023/10/30 03:21:46;;;;;;;1.57;0.63;;;11.40;99.90;;;;;;4225945;28;20201;-76
2023/10/30 03:23:48;;;;;;;3.07;0.70;;;11.40;99.90;;;;;;4223663;28;20232;-76
2023/10/30 03:25:49;;;;;;;4.40;0.60;;;11.40;99.90;;;;;;4225031;28;20687;-76
2023/10/30 03:27:51;;;;;;;2.40;0.73;;;11.50;99.90;;;;;;4225504;28;20275;-76
2023/10/30 03:29:52;;;;;;;3.47;0.60;;;11.50;99.90;;;;;;4225583;28;20296;-76
2023/10/30 03:31:55;;;;;;;1.17;0.50;;;11.50;99.90;;;;;;4226847;28;20207;-76
2023/10/30 03:33:57;;;;;;;3.17;0.70;;;11.40;99.90;;;;;;4229106;28;20220;-78
2023/10/30 03:35:58;;;;;;;3.10;0.60;;;11.40;99.90;;;;;;4228482;28;20257;-76
2023/10/30 03:38:00;;;;;;;5.17;0.80;;;11.40;99.90;;;;;;4225825;28;20204;-76
2023/10/30 03:40:00;;;;;;;2.93;0.80;;;11.40;99.90;;;;;;4218157;28;20224;-76
2023/10/30 03:42:02;;;;;;;2.20;0.70;;;11.40;99.90;;;;;;4224019;28;20616;-76
2023/10/30 03:44:05;;;;;;;2.23;0.80;;;11.50;99.90;;;;;;4226071;28;20234;-76
2023/10/30 03:46:07;;;;;;;3.17;1.00;;;11.50;99.90;;;;;;4223903;28;20573;-76
2023/10/30 03:48:11;;;;;;;3.27;0.90;;;11.50;99.90;;;;;;4222499;28;20238;-76
2023/10/30 03:50:13;;;;;;;1.67;1.00;;;11.50;99.90;;;;;;4220036;28;20251;-76
2023/10/30 03:52:15;;;;;;;4.03;1.23;;;11.40;99.90;;;;;;4219905;28;20212;-76
2023/10/30 03:54:17;;;;;;;2.87;0.70;;;11.40;99.90;;;;;;4224473;28;20285;-76
2023/10/30 03:56:18;;;;;;;3.27;1.00;;;11.40;99.90;;;;;;4228103;28;20720;-77
2023/10/30 03:58:20;;;;;;;4.30;0.70;;;11.40;99.90;;;;;;4223864;28;20213;-76
2023/10/30 04:00:22;;;;;;;2.67;0.50;;;11.50;99.90;;;;;;4222721;28;20224;-76
2023/10/30 04:02:24;;;;;;;2.03;0.60;;;11.50;99.90;;;;;;4223364;28;20206;-77
2023/10/30 04:04:28;;;;;;;2.87;0.60;;;11.50;99.90;;;;;;4224587;28;20224;-77
2023/10/30 04:06:30;;;;;;;1.63;0.60;;;11.50;99.90;;;;;;4223350;28;20663;-77
2023/10/30 04:08:32;;;;;;;4.23;0.70;;;11.50;99.90;;;;;;4219793;28;20568;-77
2023/10/30 04:10:34;;;;;;;3.67;0.60;;;11.50;99.90;;;;;;4226920;27;20198;-77
2023/10/30 04:12:36;;;;;;;2.80;0.80;;;11.50;99.90;;;;;;4224831;27;20220;-77
2023/10/30 04:14:38;;;;;;;3.47;0.77;;;11.50;99.90;;;;;;4220909;27;20683;-77
2023/10/30 04:16:40;;;;;;;0.87;0.70;;;11.50;99.90;;;;;;4229829;27;20211;-77
2023/10/30 04:18:42;;;;;;;1.33;0.63;;;11.50;99.90;;;;;;4226629;28;20251;-77
2023/10/30 04:20:46;;;;;;;2.47;0.60;;;11.50;99.90;;;;;;4230602;27;20208;-77
2023/10/30 04:22:49;;;;;;;3.23;0.60;;;11.50;99.90;;;;;;4227808;28;20204;-77
2023/10/30 04:24:51;;;;;;;2.90;0.60;;;11.60;99.90;;;;;;4229008;27;20231;-77
2023/10/30 04:26:53;;;;;;;1.97;0.70;;;11.50;99.90;;;;;;4226972;28;20284;-77
2023/10/30 04:28:55;;;;;;;4.63;1.00;;;11.50;99.90;;;;;;4227531;27;20749;-77
2023/10/30 04:30:56;;;;;;;5.90;0.70;;;11.60;99.90;;;;;;4228216;27;20269;-77
2023/10/30 04:32:58;;;;;;;3.33;0.70;;;11.60;99.90;;;;;;4221641;28;20743;-77
2023/10/30 04:34:59;;;;;;;2.40;0.67;;;11.60;99.90;;;;;;4227635;27;20212;-77
2023/10/30 04:37:02;;;;;;;4.07;0.80;;;11.70;99.90;;;;;;4223548;28;20201;-77
2023/10/30 04:39:08;;;;;;;4.23;0.90;;;11.60;99.90;;;;;;4227079;28;20226;-77
2023/10/30 04:41:10;;;;;;;3.77;0.90;;;11.60;99.90;;;;;;4228555;27;20248;-77
2023/10/30 04:43:12;;;;;;;4.20;0.80;;;11.60;99.90;;;;;;4224425;28;20239;-77
2023/10/30 04:45:14;;;;;;;3.53;0.80;;;11.60;99.90;;;;;;4223848;28;20292;-77
2023/10/30 04:47:15;;;;;;;1.93;0.70;;;11.60;99.90;;;;;;4225229;27;20230;-77
2023/10/30 04:49:17;;;;;;;2.80;0.63;;;11.60;99.90;;;;;;4225066;28;20204;-77
2023/10/30 04:51:18;;;;;;;3.10;0.70;;;11.60;99.90;;;;;;4224693;28;20213;-77
2023/10/30 04:53:22;;;;;;;3.70;0.63;;;11.60;99.90;;;;;;4229514;27;20594;-77
2023/10/30 04:55:24;;;;;;;3.40;0.90;;;11.60;99.90;;;;;;4230797;27;20224;-77
2023/10/30 04:57:25;;;;;;;1.67;0.63;;;11.60;99.90;;;;;;4225460;27;20278;-77
2023/10/30 04:59:27;;;;;;;2.63;0.93;;;11.60;99.90;;;;;;4225978;27;20221;-77
2023/10/30 05:01:29;;;;;;;4.47;0.80;;;11.60;99.90;;;;;;4230530;27;20200;-77
2023/10/30 05:03:31;;;;;;;5.03;1.23;;;11.60;99.90;;;;;;4226194;28;20302;-77
2023/10/30 05:05:36;;;;;;;6.87;2.50;;;11.60;99.90;;;;;;4226915;27;20256;-77
2023/10/30 05:07:40;;;;;;;2.57;1.10;;;11.50;99.90;;;;;;4226655;28;20254;-77
2023/10/30 05:09:44;;;;;;;4.77;1.00;;;11.50;99.90;;;;;;4223435;28;20198;-77
2023/10/30 05:11:46;;;;;;;1.83;0.80;;;11.50;99.90;;;;;;4230257;27;20231;-77
2023/10/30 05:13:48;;;;;;;5.30;0.80;;;11.50;99.90;;;;;;4225646;27;20707;-77
2023/10/30 05:15:50;;;;;;;5.10;0.70;;;11.50;99.90;;;;;;4224856;27;20200;-77
2023/10/30 05:17:52;;;;;;;5.63;1.00;;;11.60;99.90;;;;;;4226309;27;20574;-77
2023/10/30 05:19:53;;;;;;;3.57;0.80;;;11.60;99.90;;;;;;4226121;27;20222;-77
2023/10/30 05:21:55;;;;;;;2.43;0.90;;;11.70;99.90;;;;;;4224463;28;20201;-77
2023/10/30 05:23:57;;;;;;;3.00;0.70;;;11.60;99.90;;;;;;4225792;28;20243;-77
2023/10/30 05:26:01;;;;;;;3.87;0.80;;;11.60;99.90;;;;;;4224809;27;20271;-77
2023/10/30 05:28:05;;;;;;;3.57;0.70;;;11.60;99.90;;;;;;4222013;28;20249;-77
2023/10/30 05:30:07;;;;;;;2.40;0.70;;;11.60;99.90;;;;;;4222792;27;20205;-77
2023/10/30 05:32:09;;;;;;;4.47;0.97;;;11.60;99.90;;;;;;4221940;28;20234;-77
2023/10/30 05:34:11;;;;;;;4.27;0.83;;;11.60;99.90;;;;;;4224728;27;20278;-77
2023/10/30 05:36:13;;;;;;;4.07;0.67;;;11.60;99.90;;;;;;4229465;27;20266;-77
2023/10/30 05:38:15;;;;;;;2.30;0.80;;;11.60;99.90;;;;;;4229571;27;20209;-77
2023/10/30 05:40:16;;;;;;;3.77;0.70;;;11.60;99.90;;;;;;4232706;27;20212;-77
2023/10/30 05:42:19;;;;;;;6.40;0.90;;;11.60;99.90;;;;;;4227996;27;20232;-77
2023/10/30 05:44:21;;;;;;;3.63;0.80;;;11.60;99.90;;;;;;4228312;27;20280;-77
2023/10/30 05:46:23;;;;;;;3.87;1.03;;;11.60;99.90;;;;;;4227356;27;20200;-77
2023/10/30 05:48:25;;;;;;;2.70;0.70;;;11.60;99.90;;;;;;4223311;27;20197;-76
2023/10/30 05:50:27;;;;;;;4.50;1.10;;;11.60;99.90;;;;;;4226162;27;20257;-77
2023/10/30 05:52:29;;;;;;;5.03;1.03;;;11.60;99.90;;;;;;4222653;28;20205;-77
2023/10/30 05:54:31;;;;;;;1.87;0.70;;;11.60;99.90;;;;;;4222932;27;20220;-77
2023/10/30 05:56:33;;;;;;;3.83;0.70;;;11.60;99.90;;;;;;4230477;27;20555;-77
2023/10/30 05:58:36;;;;;;;3.10;0.90;;;11.60;99.90;;;;;;4225848;27;20230;-76
2023/10/30 06:00:38;;;;;;;1.70;0.67;;;11.60;99.90;;;;;;4230106;27;20273;-77
2023/10/30 06:02:39;;;;;;;8.13;2.37;;;11.60;99.90;;;;;;4229537;27;20254;-77
2023/10/30 06:04:46;;;;;;;4.23;1.37;;;11.60;99.90;;;;;;4234649;27;20200;-77
2023/10/30 06:06:48;;;;;;;3.13;1.27;;;11.60;99.90;;;;;;4229171;28;20221;-77
2023/10/30 06:08:50;;;;;;;6.00;0.93;;;11.60;99.90;;;;;;4227402;27;20798;-77
2023/10/30 06:10:52;;;;;;;6.13;0.83;;;11.60;99.90;;;;;;4223854;27;20209;-77
2023/10/30 06:12:54;;;;;;;4.53;0.60;;;11.60;99.90;;;;;;4227811;27;20754;-77
2023/10/30 06:14:56;;;;;;;2.63;0.60;;;11.60;99.90;;;;;;4223923;28;20241;-77
2023/10/30 06:17:01;;;;;;;2.27;0.70;;;11.60;99.90;;;;;;4227370;27;20292;-77
2023/10/30 06:19:03;;;;;;;3.00;0.97;;;11.60;99.90;;;;;;4228632;27;20217;-77
2023/10/30 06:21:07;;;;;;;3.53;1.00;;;11.60;99.90;;;;;;4229145;27;20224;-76
2023/10/30 06:23:08;;;;;;;1.27;0.60;;;11.60;99.90;;;;;;4229199;27;20594;-77
2023/10/30 06:25:10;;;;;;;2.57;0.60;;;11.70;99.90;;;;;;4224855;27;20218;-76
2023/10/30 06:27:12;;;;;;;2.20;0.70;;;11.70;99.90;;;;;;4224893;27;20207;-77
2023/10/30 06:29:14;;;;;;;4.97;1.73;;;11.60;99.90;;;;;;4224370;28;20218;-77
2023/10/30 06:31:19;;;;;;;8.13;2.67;;;11.70;99.90;;;;;;4225650;28;20208;-76
2023/10/30 06:33:21;;;;;;;3.37;1.40;;;11.70;99.90;;;;;;4222225;27;20323;-77
2023/10/30 06:35:22;;;;;;;6.13;0.90;;;11.70;99.90;;;;;;4225395;28;20213;-77
2023/10/30 06:37:24;;;;;;;5.70;1.07;;;11.70;99.90;;;;;;4226189;27;20200;-77
2023/10/30 06:39:26;;;;;;;2.13;0.90;;;11.70;99.90;;;;;;4222153;27;20602;-77
2023/10/30 06:41:28;;;;;;;3.03;0.73;;;11.70;99.90;;;;;;4221956;28;20212;-77
2023/10/30 06:43:30;;;;;;;2.90;1.00;;;11.70;99.90;;;;;;4224708;27;20234;-77
2023/10/30 06:45:32;;;;;;;1.50;0.70;;;11.70;99.90;;;;;;4223074;27;20690;-77
2023/10/30 06:47:36;;;;;;;2.07;0.80;;;11.80;99.90;;;;;;4224764;28;20258;-77
2023/10/30 06:49:38;;;;;;;3.80;0.73;;;11.80;99.90;;;;;;4225150;27;20204;-77
2023/10/30 06:51:40;;;;;;;2.90;0.97;;;11.80;99.90;;;;;;4221976;27;20673;-77
2023/10/30 06:53:41;;;;;;;1.63;0.63;;;11.80;99.90;;;;;;4217744;27;20224;-77
2023/10/30 06:55:44;;;;;;;1.57;0.60;;;11.80;99.90;;;;;;4226938;27;20254;-82
2023/10/30 06:57:46;;;;;;;4.83;0.80;;;11.80;99.90;;;;;;4228783;27;20262;-82
2023/10/30 06:59:49;;;;;;;1.90;0.70;;;11.90;99.90;;;;;;4228241;27;20613;-81
2023/10/30 07:01:51;;;;;;;1.53;0.70;;;11.80;99.90;;;;;;4227087;28;20200;-80
2023/10/30 07:03:54;;;;;;;4.17;1.00;;;11.80;99.90;;;;;;4224657;28;20635;-78
2023/10/30 07:05:56;;;;;;;3.17;0.70;;;11.80;99.90;;;;;;4225206;28;20204;-80
2023/10/30 07:07:58;;;;;;;2.93;0.67;;;11.90;99.90;;;;;;4229706;27;20721;-75
2023/10/30 07:10:01;;;;;;;5.50;0.90;;;11.90;99.90;;;;;;4220831;28;20201;-74
2023/10/30 07:12:03;;;;;;;3.37;1.00;;;11.90;99.90;;;;;;4218531;27;20216;-75
2023/10/30 07:14:04;;;;;;;2.83;0.97;;;11.90;99.90;;;;;;4220849;27;20250;-75
2023/10/30 07:16:07;;;;;;;4.87;0.87;;;12.00;99.90;;;;;;4224477;28;20198;-76
2023/10/30 07:18:09;;;;;;;4.27;0.80;;;12.10;99.90;;;;;;4222647;27;20252;-76
2023/10/30 07:20:13;;;;;;;4.37;0.80;;;12.10;99.90;;;;;;4224228;28;20225;-75
2023/10/30 07:22:15;;;;;;;3.67;0.80;;;12.10;99.90;;;;;;4222931;28;20220;-75
2023/10/30 07:24:17;;;;;;;2.37;0.70;;;12.10;99.90;;;;;;4222083;28;20738;-76
2023/10/30 07:26:21;;;;;;;3.83;0.70;;;12.10;99.90;;;;;;4223750;28;20209;-76
2023/10/30 07:28:23;;;;;;;3.77;0.70;;;12.10;99.90;;;;;;4223180;28;20202;-76
2023/10/30 07:30:26;;;;;;;2.33;0.73;;;12.10;99.90;;;;;;4221101;28;20197;-76
2023/10/30 07:32:28;;;;;;;1.67;0.70;;;12.10;99.90;;;;;;4224735;27;20206;-76
2023/10/30 07:34:30;;;;;;;1.97;0.77;;;12.10;99.90;;;;;;4219240;28;20217;-76
2023/10/30 07:36:34;;;;;;;3.27;0.67;;;12.00;99.90;;;;;;4222565;28;20206;-75
2023/10/30 07:38:36;;;;;;;2.57;0.70;;;12.10;99.90;;;;;;4224284;28;20266;-76
2023/10/30 07:40:38;;;;;;;2.57;0.90;;;12.00;99.90;;;;;;4221029;28;20268;-77
2023/10/30 07:42:40;;;;;;;4.47;0.87;;;12.00;99.90;;;;;;4219537;28;20204;-76
2023/10/30 07:44:42;;;;;;;5.00;0.90;;;12.00;99.90;;;;;;4221390;28;20222;-77
2023/10/30 07:46:44;;;;;;;3.37;0.73;;;12.00;99.90;;;;;;4228118;27;20209;-76
2023/10/30 07:48:46;;;;;;;2.33;0.73;;;12.10;99.90;;;;;;4229392;27;20690;-75
2023/10/30 07:50:47;;;;;;;4.37;0.80;;;12.00;99.90;;;;;;4231898;27;20197;-76
2023/10/30 07:52:51;;;;;;;3.63;0.63;;;12.10;99.90;;;;;;4230465;27;20238;-76
2023/10/30 07:54:53;;;;;;;3.07;0.77;;;12.10;99.90;;;;;;4231944;27;20197;-74
2023/10/30 07:56:55;;;;;;;3.30;0.93;;;12.10;99.90;;;;;;4228590;27;20207;-75
2023/10/30 07:58:56;;;;;;;1.90;0.60;;;12.00;99.90;;;;;;4228891;27;20267;-73
2023/10/30 08:00:58;;;;;;;2.67;0.87;;;12.00;99.90;;;;;;4229040;28;20230;-74
2023/10/30 08:03:00;;;;;;;4.97;1.07;;;12.10;99.90;;;;;;4225309;27;20583;-74
2023/10/30 08:05:02;;;;;;;4.53;1.03;;;12.10;99.90;;;;;;4228726;27;20604;-73
2023/10/30 08:07:04;;;;;;;2.70;0.60;;;12.10;99.90;;;;;;4229903;27;20219;-74
2023/10/30 08:09:08;;;;;;;1.63;0.60;;;12.10;99.90;;;;;;4230868;27;20666;-74
2023/10/30 08:11:10;;;;;;;4.23;0.60;;;12.10;99.90;;;;;;4227679;27;20217;-74
2023/10/30 08:13:12;;;;;;;1.10;0.67;;;12.10;99.90;;;;;;4227498;28;20216;-74
2023/10/30 08:15:14;;;;;;;3.30;0.93;;;12.10;99.90;;;;;;4232034;27;20577;-74
2023/10/30 08:17:16;;;;;;;2.87;0.80;;;12.10;99.90;;;;;;4224531;27;20209;-74
2023/10/30 08:19:18;;;;;;;3.00;0.77;;;12.10;99.90;;;;;;4228836;27;20234;-74
2023/10/30 08:21:20;;;;;;;2.90;0.80;;;12.10;99.90;;;;;;4228230;27;21498;-75
2023/10/30 08:23:21;;;;;;;2.83;0.60;;;12.10;99.90;;;;;;4227324;27;20238;-75
2023/10/30 08:25:25;;;;;;;3.90;0.80;;;12.20;99.90;;;;;;4227910;27;20267;-75
2023/10/30 08:27:27;;;;;;;3.27;0.70;;;12.20;99.90;;;;;;4239221;27;20303;-75
2023/10/30 08:29:29;;;;;;;2.90;1.00;;;12.20;99.90;;;;;;4228887;28;20569;-75
2023/10/30 08:31:31;;;;;;;1.30;0.80;;;12.20;99.90;;;;;;4224505;27;20193;-74
2023/10/30 08:33:33;;;;;;;1.50;0.70;;;12.20;99.90;;;;;;4225968;27;20559;-76
2023/10/30 08:35:37;;;;;;;3.27;0.77;;;12.20;99.90;;;;;;4226868;27;20213;-77
2023/10/30 08:37:39;;;;;;;2.40;0.60;;;12.20;99.90;;;;;;4223450;27;20205;-75
2023/10/30 08:39:41;;;;;;;5.80;0.70;;;12.40;99.90;;;;;;4227021;27;20206;-75
2023/10/30 08:41:44;;;;;;;5.53;0.80;;;12.30;99.90;;;;;;4229657;27;20697;-75
2023/10/30 08:43:46;;;;;;;2.97;0.87;;;12.30;99.90;;;;;;4224875;27;20236;-75
2023/10/30 08:45:48;;;;;;;4.83;0.70;;;12.20;99.90;;;;;;4225507;27;20213;-75
2023/10/30 08:47:50;;;;;;;1.10;0.80;;;12.30;99.90;;;;;;4230547;27;20204;-76
2023/10/30 08:49:52;;;;;;;3.57;0.80;;;12.30;99.90;;;;;;4231758;27;20236;-75
2023/10/30 08:51:54;;;;;;;2.87;0.70;;;12.30;99.90;;;;;;4226668;28;20681;-75
2023/10/30 08:53:56;;;;;;;4.27;0.97;;;12.30;99.90;;;;;;4225869;27;20618;-75
2023/10/30 08:55:58;;;;;;;5.03;0.90;;;12.30;99.90;;;;;;4226517;27;20209;-74
2023/10/30 08:58:02;;;;;;;2.63;0.50;;;12.30;99.90;;;;;;4230145;27;20208;-74
2023/10/30 09:00:07;;;;;;;2.17;0.63;;;12.30;99.90;;;;;;4228116;27;20230;-75
2023/10/30 09:02:09;;;;;;;4.07;0.67;;;12.30;99.90;;;;;;4242542;27;20705;-76
2023/10/30 09:04:11;;;;;;;4.63;0.70;;;12.30;99.90;;;;;;4226544;28;20282;-75
2023/10/30 09:06:12;;;;;;;5.50;0.97;;;12.30;99.90;;;;;;4229327;27;20217;-75
2023/10/30 09:08:14;;;;;;;4.27;0.80;;;12.30;99.90;;;;;;4230333;27;20197;-74
2023/10/30 09:10:16;;;;;;;2.80;0.60;;;12.30;99.90;;;;;;4223746;28;20669;-73
2023/10/30 09:12:18;;;;;;;2.03;0.70;;;12.30;99.90;;;;;;4229979;27;20223;-73
2023/10/30 09:14:21;;;;;;;2.77;0.70;;;12.30;99.90;;;;;;4225177;27;20231;-73
2023/10/30 09:16:23;;;;;;;3.80;1.10;;;12.30;99.90;;;;;;4227909;27;20225;-78
2023/10/30 09:18:25;;;;;;;2.73;0.90;;;12.30;99.90;;;;;;4225290;27;20222;-75
2023/10/30 09:20:29;;;;;;;3.20;0.80;;;12.30;99.90;;;;;;4223117;27;20710;-77
2023/10/30 09:22:32;;;;;;;3.80;0.60;;;12.30;99.90;;;;;;4226750;27;20757;-77
2023/10/30 09:24:34;;;;;;;3.73;0.97;;;12.30;99.90;;;;;;4225924;28;20206;-75
2023/10/30 09:26:36;;;;;;;2.10;0.80;;;12.30;99.90;;;;;;4229136;27;20216;-75
2023/10/30 09:28:38;;;;;;;1.97;0.80;;;12.30;99.90;;;;;;4231248;27;20235;-76
2023/10/30 09:30:41;;;;;;;2.17;0.77;;;12.30;99.90;;;;;;4223762;27;20229;-75
2023/10/30 09:32:43;;;;;;;1.80;0.70;;;12.30;99.90;;;;;;4228042;27;20201;-75
2023/10/30 09:34:45;;;;;;;2.10;0.70;;;12.30;99.90;;;;;;4227510;27;20684;-75
2023/10/30 09:36:49;;;;;;;3.47;0.90;;;12.30;99.90;;;;;;4226309;27;20202;-75
2023/10/30 09:38:53;;;;;;;3.67;1.07;;;12.30;99.90;;;;;;4226358;27;20661;-75
2023/10/30 09:41:01;;;;;;;2.30;0.60;;;12.30;99.90;;;;;;4226939;27;20230;-74
2023/10/30 09:43:04;;;;;;;3.53;0.77;;;12.30;99.90;;;;;;4228990;27;20237;-77
2023/10/30 09:45:07;;;;;;;3.67;0.80;;;12.30;99.90;;;;;;4227920;27;20235;-76
2023/10/30 09:47:12;;;;;;;2.97;0.90;;;12.40;99.90;;;;;;4226403;27;20289;-75
2023/10/30 09:49:16;;;;;;;3.00;1.00;;;12.40;99.90;;;;;;4229351;27;20302;-76
2023/10/30 09:51:21;;;;;;;2.53;0.87;;;12.40;99.90;;;;;;4228125;27;20196;-75
2023/10/30 09:53:23;;;;;;;1.53;0.70;;;12.40;99.90;;;;;;4228500;27;20697;-75
2023/10/30 09:55:25;;;;;;;2.07;1.07;;;12.40;99.90;;;;;;4223298;28;20218;-75
2023/10/30 09:57:28;;;;;;;2.03;0.80;;;12.40;99.90;;;;;;4228685;27;20616;-76
2023/10/30 09:59:33;;;;;;;3.63;1.00;;;12.40;99.90;;;;;;4230805;27;20694;-76
2023/10/30 10:01:35;;;;;;;1.73;0.77;;;12.40;99.90;;;;;;4224332;27;20220;-77
2023/10/30 10:03:37;;;;;;;4.13;0.80;;;12.40;99.90;;;;;;4222897;27;20964;-77
2023/10/30 10:05:40;;;;;;;2.13;0.80;;;12.50;99.90;;;;;;4224466;27;20203;-77
2023/10/30 10:07:42;;;;;;;5.77;0.80;;;12.50;99.90;;;;;;4224894;27;20278;-76
2023/10/30 10:09:57;;;;;;;4.60;0.90;;;12.50;99.90;;;;;;4225985;28;20464;-77
2023/10/30 10:11:59;;;;;;;4.43;0.70;;;12.60;99.90;;;;;;4223594;28;20197;-77
2023/10/30 10:14:01;;;;;;;1.83;0.77;;;12.70;99.90;;;;;;4223435;27;20246;-77
2023/10/30 10:16:04;;;;;;;2.50;0.80;;;12.70;99.90;;;;;;4223129;27;20212;-75
2023/10/30 10:18:05;;;;;;;1.83;0.80;;;12.80;99.90;;;;;;4226590;28;20265;-75
2023/10/30 10:20:10;;;;;;;3.53;0.90;;;12.80;99.90;;;;;;4231632;27;20627;-76
2023/10/30 10:22:25;;;;;;;3.37;1.00;;;12.90;99.90;;;;;;4227593;27;20237;-76
2023/10/30 10:24:29;;;;;;;4.17;1.03;;;13.00;99.90;;;;;;4230842;27;20254;-80
2023/10/30 10:26:31;;;;;;;4.13;1.00;;;13.10;99.90;;;;;;4231983;27;20218;-80
2023/10/30 10:28:33;;;;;;;3.00;0.80;;;13.10;99.90;;;;;;4229796;27;20193;-79
2023/10/30 10:30:39;;;;;;;2.00;0.90;;;13.20;99.90;;;;;;4230932;28;20271;-79
2023/10/30 10:32:44;;;;;;;2.20;0.90;;;13.30;99.90;;;;;;4229500;27;20253;-80
2023/10/30 10:34:49;;;;;;;3.03;1.10;;;13.40;99.90;;;;;;4230704;27;20201;-79
2023/10/30 10:36:55;;;;;;;1.17;0.80;;;13.40;99.90;;;;;;4234998;27;20842;-79
2023/10/30 10:38:58;;;;;;;1.87;0.97;;;13.50;99.90;;;;;;4233802;27;20204;-80